METAR Data
IDs: Format: Raw Decoded Include TAF

Data at: 0944 UTC 22 Oct 2018

PABT 220853Z COR 22003KT 10SM -SN OVC050 M01/M02 A2956 RMK AO2 SNB45 SLP025 60000 931000 T10111022 400181064 53008 PNO $
PABT 220753Z 00000KT 10SM OVC050 M01/M02 A2955 RMK AO2 SLP020 T10061022 PNO $
PABT 220653Z 00000KT 10SM OVC050 M01/M02 A2954 RMK AO2 SLP018 T10061022 PNO $
PABT 220553Z 00000KT 10SM BKN030 OVC050 M01/M02 A2954 RMK AO2 SLP017 60001 931001 T10061022 10017 21006 53004 PNO $
PABT 220453Z 00000KT 10SM BKN030 OVC050 00/M02 A2953 RMK AO2 SLP014 T00001022 PNO $
PABT 220353Z 00000KT 10SM BKN030 OVC050 M01/M02 A2953 RMK AO2 SLP012 T10061022 PNO $
PABT 220253Z 00000KT 10SM SCT017 BKN030 OVC050 01/M02 A2953 RMK AO2 SNE15 SLP012 60001 931001 T00061017 55005 PNO $
PABT 220153Z 36005KT 7SM -SN OVC017 01/M02 A2952 RMK AO2 SLP011 PCPN VRY LGT T00061017 PNO $
PABT 220106Z 36007KT 3SM -SN BR OVC017 01/M01 A2953 RMK AO2 T00061011 PNO $
PABT 220053Z 36005KT 2 1/2SM -SN BR OVC017 01/M01 A2953 RMK AO2 SNB2355 SLP014 T00061011 PNO $
PABT 220032Z 36005KT 2 1/2SM -SN BCFG BKN017 OVC032 02/M04 A2953 RMK AO2 SNB2355 T00171039 PNO $
PABT 212353Z 00000KT 10SM FEW017 OVC032 02/M04 A2954 RMK AO2 SLP017 BINOVC DSNT NW SHSN VC E T00171039 10017 21039 58012 PNO $
PABT 212253Z 00000KT 10SM SCT038 BKN070 BKN140 M01/M04 A2955 RMK AO2 SLP021 T10061044 PNO $
PABT 212153Z 00000KT 10SM FEW050 FEW070 SCT100 BKN140 M01/M05 A2957 RMK AO2 SLP026 T10111050 PNO $
PABT 212053Z 00000KT 10SM FEW050 FEW070 SCT100 BKN140 M02/M04 A2958 RMK AO2 SLP030 T10221044 58012 PNO $
PABT 211953Z 00000KT 10SM FEW050 SCT070 BKN100 M03/M06 A2959 RMK AO2 SLP034 T10281056 PNO $
PABT 211853Z 00000KT 10SM FEW070 FEW100 M04/M06 A2961 RMK AO2 SLP040 T10391056 PNO $
PABT 211753Z 00000KT 10SM FEW070 FEW100 M04/M06 A2961 RMK AO2 SLP042 T10391056 11011 21050 56007 PNO $
PABT 211653Z 00000KT 10SM FEW018 FEW070 M05/M06 A2962 RMK AO2 SLP043 T10501056 PNO $
PABT 211553Z 00000KT 10SM FEW018 FEW070 M04/M06 A2963 RMK AO2 SLP046 T10391056 PNO $
PABT 211453Z 00000KT 10SM FEW060 M04/M06 A2964 RMK AO2 SLP050 T10391056 58014 PNO $
PABT 211353Z 00000KT 10SM SCT060 M03/M06 A2965 RMK AO2 SLP053 T10331056 PNO $
PABT 211253Z 00000KT 10SM BKN060 M02/M03 A2966 RMK AO2 SLP058 T10171033 PNO $
PABT 211153Z 00000KT 10SM BKN060 M01/M03 A2968 RMK AO2 SLP063 T10111033 10000 21011 58011 PNO $
PABT 211053Z 00000KT 10SM OVC060 M01/M03 A2969 RMK AO2 SLP068 T10061033 PNO $
PABT 210953Z 00000KT 10SM OVC060 M01/M04 A2970 RMK AO2 SLP071 T10111044 PNO $
PABT 210853Z COR 00000KT 10SM OVC060 M01/M04 A2971 RMK AO2 SLP074 T10111044 400291033 51002 PNO $
PABT 210653Z 00000KT 10SM OVC050 00/M03 A2971 RMK AO2 SLP075 T00001033 PNO $
PABT 210553Z 00000KT 10SM OVC050 00/M02 A2970 RMK AO2 SLP072 T00001017 10028 20000 51009 PNO $
PABT 210453Z 00000KT 10SM OVC050 00/M01 A2970 RMK AO2 SLP070 T00001011 PNO $
PABT 210353Z 00000KT 10SM BKN050 OVC070 01/M01 A2969 RMK AO2 SLP066 T00061006 PNO $
PABT 210253Z 00000KT 10SM BKN050 OVC070 01/M01 A2967 RMK AO2 SLP062 T00061011 51008 PNO $
PABT 210153Z 00000KT 10SM FEW042 BKN050 OVC070 02/M03 A2967 RMK AO2 SLP059 T00171028 PNO $
PABT 210053Z 00000KT 10SM FEW042 BKN050 BKN070 03/M04 A2966 RMK AO2 SLP057 T00281044 PNO $
PABT 202353Z 01005KT 10SM FEW042 BKN050 BKN070 02/M04 A2965 RMK AO2 SLP053 T00221039 10022 21006 51007 PNO $
PABT 202253Z 00000KT 10SM FEW042 BKN050 BKN070 02/M03 A2964 RMK AO2 SLP051 T00221033 PNO $
PABT 202153Z 00000KT 10SM BKN070 BKN100 02/M04 A2964 RMK AO2 SLP049 T00171039 PNO $